Terminal Aerodrome Forecast
Issued by NWS

Home | Current Version | Previous Version | Text Only | Print | Product List | Glossary On
Versions: 1 2 3 4 5 6 7 8 9 10 11 12
348
FTUS45 KFGZ 270540
TAFPRC
TAF
KPRC 270540Z 2706/2806 20006KT P6SM FEW120 BKN250
     FM271830 21016G25KT P6SM BKN060
     FM280300 27012G22KT P6SM BKN040=

USA.gov is the U.S. government's official web portal to all federal, state and local government web resources and services.